createdAt,value
2022-08-05T00:01:48.936Z,47.07
2022-08-05T00:04:55.178Z,47.16
2022-08-05T00:08:00.027Z,47.82
2022-08-05T00:11:20.715Z,47.97
2022-08-05T00:14:31.531Z,48.60
2022-08-05T00:17:33.589Z,48.34
2022-08-05T00:20:35.512Z,48.65
2022-08-05T00:23:45.833Z,48.35
2022-08-05T00:26:55.252Z,48.34
2022-08-05T00:29:57.542Z,48.90
2022-08-05T00:33:02.232Z,48.77
2022-08-05T00:36:16.225Z,49.14
2022-08-05T00:39:26.219Z,49.24
2022-08-05T00:42:42.099Z,49.61
2022-08-05T00:45:50.218Z,49.90
2022-08-05T00:48:52.659Z,49.29
2022-08-05T00:51:54.357Z,49.83
2022-08-05T00:54:56.793Z,49.95
2022-08-05T00:57:59.398Z,49.30
2022-08-05T01:01:01.251Z,49.76
2022-08-05T01:04:03.853Z,49.09
2022-08-05T01:07:15.735Z,49.51
2022-08-05T01:10:27.332Z,49.99
2022-08-05T01:13:57.527Z,50.78
2022-08-05T01:17:08.855Z,51.12
2022-08-05T01:20:34.349Z,50.85
2022-08-05T01:24:01.728Z,50.83
2022-08-05T01:27:25.396Z,50.75
2022-08-05T01:30:34.017Z,51.09
2022-08-05T01:33:49.309Z,51.52
2022-08-05T01:37:18.011Z,51.36
2022-08-05T01:40:29.921Z,51.70
2022-08-05T01:43:33.632Z,52.07
2022-08-05T01:46:42.579Z,52.31
2022-08-05T01:50:00.235Z,52.59
2022-08-05T01:53:10.123Z,52.09
2022-08-05T01:58:13.193Z,52.59
2022-08-05T01:59:41.195Z,51.95
2022-08-05T02:02:54.939Z,52.74
2022-08-05T02:05:57.899Z,52.94
2022-08-05T02:09:03.488Z,52.67
2022-08-05T02:12:11.530Z,52.76
2022-08-05T02:15:19.822Z,52.46
2022-08-05T02:18:35.254Z,52.60
2022-08-05T02:21:46.781Z,52.84
2022-08-05T02:25:03.483Z,53.09
2022-08-05T02:28:08.679Z,53.31
2022-08-05T02:31:23.815Z,53.24
2022-08-05T02:34:28.996Z,53.96
2022-08-05T02:37:34.716Z,52.97
2022-08-05T02:40:41.107Z,54.37
2022-08-05T02:44:06.830Z,54.80
2022-08-05T02:47:09.983Z,54.68
2022-08-05T02:50:13.854Z,55.87
2022-08-05T02:53:21.982Z,55.68
2022-08-05T02:56:24.751Z,55.63
2022-08-05T02:59:28.492Z,56.69
2022-08-05T03:02:42.905Z,55.81
2022-08-05T03:06:55.567Z,56.81
2022-08-05T03:09:15.855Z,57.09
2022-08-05T03:12:39.474Z,56.81
2022-08-05T03:15:44.343Z,56.07
2022-08-05T03:18:46.420Z,56.03
2022-08-05T03:21:50.537Z,56.80
2022-08-05T03:24:53.106Z,58.03
2022-08-05T03:27:59.819Z,58.04
2022-08-05T03:31:03.875Z,57.69
2022-08-05T03:34:05.996Z,56.56
2022-08-05T03:37:07.901Z,58.15
2022-08-05T03:40:12.050Z,58.43
2022-08-05T03:43:58.868Z,57.98
2022-08-05T03:46:36.257Z,58.03
2022-08-05T03:49:51.864Z,57.56
2022-08-05T03:55:50.338Z,56.67
2022-08-05T03:56:42.054Z,56.77
2022-08-05T03:59:54.759Z,54.81
2022-08-05T04:03:02.797Z,56.43
2022-08-05T04:06:06.758Z,57.99
2022-08-05T04:09:11.068Z,57.68
2022-08-05T04:12:23.683Z,58.12
2022-08-05T04:15:32.918Z,56.70
2022-08-05T04:18:38.097Z,56.54
2022-08-05T04:22:05.819Z,55.00
2022-08-05T04:25:03.487Z,50.94
2022-08-05T04:28:11.344Z,49.77
2022-08-05T04:31:14.804Z,47.73
2022-08-05T04:34:32.336Z,46.35
2022-08-05T04:38:00.856Z,45.94
2022-08-05T04:40:58.161Z,45.83
2022-08-05T04:44:00.345Z,47.27
2022-08-05T04:47:12.064Z,48.30
2022-08-05T04:50:34.343Z,49.17
2022-08-05T04:53:40.186Z,50.63
2022-08-05T04:56:42.165Z,50.97
2022-08-05T04:59:45.535Z,50.80
2022-08-05T05:02:50.057Z,51.42
2022-08-05T05:06:40.590Z,51.75
2022-08-05T05:09:16.934Z,51.38
2022-08-05T05:12:19.366Z,53.43
2022-08-05T05:15:57.320Z,55.97
2022-08-05T05:18:57.100Z,56.12
2022-08-05T05:22:23.965Z,54.52
2022-08-05T05:25:33.051Z,53.47
2022-08-05T05:28:42.693Z,54.03
2022-08-05T05:31:46.750Z,53.46
2022-08-05T05:34:48.480Z,52.71
2022-08-05T05:38:00.040Z,51.23
2022-08-05T05:41:03.245Z,49.33
2022-08-05T05:44:35.895Z,48.26
2022-08-05T05:48:06.926Z,46.98
2022-08-05T05:51:00.281Z,46.02
2022-08-05T05:54:17.142Z,44.54
2022-08-05T05:57:19.887Z,43.98
2022-08-05T06:00:27.565Z,43.00
2022-08-05T06:03:53.853Z,42.58
2022-08-05T06:06:51.513Z,42.60
2022-08-05T06:10:04.409Z,42.20
2022-08-05T06:13:08.794Z,42.30
2022-08-05T06:16:29.111Z,41.73
2022-08-05T06:19:34.568Z,40.74
2022-08-05T06:22:37.330Z,41.70
2022-08-05T06:26:12.836Z,41.26
2022-08-05T06:29:23.697Z,40.79
2022-08-05T06:32:28.850Z,40.25
2022-08-05T06:36:03.472Z,40.14
2022-08-05T06:38:54.678Z,39.98
2022-08-05T06:41:59.247Z,39.34
2022-08-05T06:45:05.590Z,39.72
2022-08-05T06:48:37.078Z,39.29
2022-08-05T06:51:32.894Z,39.77
2022-08-05T06:54:34.762Z,39.60
2022-08-05T06:57:57.809Z,38.92
2022-08-05T07:01:01.237Z,38.91
2022-08-05T07:04:03.281Z,38.66
2022-08-05T07:07:07.917Z,38.92
2022-08-05T07:10:10.529Z,37.59
2022-08-05T07:13:56.751Z,37.27
2022-08-05T07:17:58.198Z,37.65
2022-08-05T07:20:33.422Z,37.71
2022-08-05T07:23:37.420Z,36.96
2022-08-05T07:26:51.903Z,36.92
2022-08-05T07:30:24.670Z,36.45
2022-08-05T07:33:17.103Z,36.88
2022-08-05T07:36:21.200Z,36.34
2022-08-05T07:40:03.820Z,36.66
2022-08-05T07:42:45.526Z,36.42
2022-08-05T07:45:57.682Z,35.68
2022-08-05T07:49:05.907Z,35.06
2022-08-05T07:52:08.143Z,35.27
2022-08-05T07:55:44.440Z,34.23
2022-08-05T07:58:57.851Z,34.54
2022-08-05T08:01:57.756Z,34.64
2022-08-05T08:05:00.559Z,33.65
2022-08-05T08:08:02.971Z,34.12
2022-08-05T08:11:04.776Z,33.44
2022-08-05T08:14:10.869Z,33.43
2022-08-05T08:17:21.498Z,33.17
2022-08-05T08:21:00.392Z,32.72
2022-08-05T08:24:02.399Z,32.56
2022-08-05T08:27:07.353Z,32.09
2022-08-05T08:30:29.414Z,32.05
2022-08-05T08:33:37.368Z,31.50
2022-08-05T08:36:50.622Z,31.31
2022-08-05T08:39:56.972Z,30.81
2022-08-05T08:45:16.364Z,31.59
2022-08-05T08:46:22.914Z,30.85
2022-08-05T08:50:22.346Z,30.44
2022-08-05T08:52:53.147Z,30.88
2022-08-05T08:56:04.843Z,30.59
2022-08-05T08:59:14.989Z,29.98
2022-08-05T09:02:24.229Z,30.07
2022-08-05T09:05:38.808Z,31.23
2022-08-05T09:08:50.575Z,29.80
2022-08-05T09:11:55.305Z,30.06
2022-08-05T09:15:06.423Z,29.47
2022-08-05T09:18:09.808Z,28.68
2022-08-05T09:21:20.946Z,29.02
2022-08-05T09:24:39.969Z,29.82
2022-08-05T09:28:03.869Z,28.85
2022-08-05T09:31:18.137Z,28.40
2022-08-05T09:34:45.537Z,27.46
2022-08-05T09:38:12.222Z,27.81
2022-08-05T09:41:18.657Z,27.08
2022-08-05T09:44:34.720Z,27.51
2022-08-05T09:47:55.542Z,26.43
2022-08-05T09:51:14.769Z,26.18
2022-08-05T09:54:21.442Z,26.40
2022-08-05T09:57:33.771Z,25.71
2022-08-05T10:00:37.275Z,25.21
2022-08-05T10:03:58.606Z,25.16
2022-08-05T10:07:01.610Z,25.56
2022-08-05T10:10:32.308Z,25.27
2022-08-05T10:13:47.751Z,24.42
2022-08-05T10:16:52.445Z,23.93
2022-08-05T10:20:03.848Z,23.64
2022-08-05T10:23:34.339Z,25.29
2022-08-05T10:26:51.397Z,24.85
2022-08-05T10:30:07.180Z,24.12
2022-08-05T10:33:17.070Z,22.38
2022-08-05T10:36:23.599Z,22.80
2022-08-05T10:40:03.585Z,22.92
2022-08-05T10:43:02.630Z,22.65
2022-08-05T10:46:08.994Z,22.79
2022-08-05T10:49:16.780Z,22.18
2022-08-05T10:52:53.917Z,22.28
2022-08-05T10:56:25.494Z,21.66
2022-08-05T11:00:02.570Z,21.08
2022-08-05T11:03:23.573Z,21.97
2022-08-05T11:06:30.847Z,21.44
2022-08-05T11:10:03.616Z,22.26
2022-08-05T11:13:57.946Z,21.74
2022-08-05T11:17:57.884Z,23.74
2022-08-05T11:20:51.030Z,22.15
2022-08-05T11:24:04.326Z,21.54
2022-08-05T11:27:36.998Z,21.60
2022-08-05T11:31:06.493Z,20.71
2022-08-05T11:34:08.739Z,21.66
2022-08-05T11:38:30.973Z,20.80
2022-08-05T11:41:54.751Z,21.75
2022-08-05T11:44:52.979Z,20.18
2022-08-05T11:47:57.158Z,19.91
2022-08-05T11:51:01.957Z,20.96
2022-08-05T11:54:04.035Z,21.74
2022-08-05T11:57:08.408Z,21.08
2022-08-05T12:00:31.669Z,21.37
2022-08-05T12:03:57.217Z,20.64
2022-08-05T12:07:02.098Z,20.39
2022-08-05T12:10:09.344Z,20.89
2022-08-05T12:13:27.789Z,21.68
2022-08-05T12:16:41.346Z,21.85
2022-08-05T12:20:27.063Z,22.86
2022-08-05T12:23:15.992Z,21.74
2022-08-05T12:26:17.690Z,20.38
2022-08-05T12:29:23.493Z,20.42
2022-08-05T12:32:25.441Z,21.13
2022-08-05T12:35:39.643Z,23.01
2022-08-05T12:38:42.108Z,21.21
2022-08-05T12:41:45.632Z,20.09
2022-08-05T12:44:48.047Z,21.39
2022-08-05T12:48:01.519Z,20.91
2022-08-05T12:52:10.580Z,21.33
2022-08-05T12:54:42.014Z,20.38
2022-08-05T12:58:38.364Z,20.82
2022-08-05T13:02:00.554Z,21.49
2022-08-05T13:04:30.025Z,21.20
2022-08-05T13:07:57.357Z,20.90
2022-08-05T13:11:00.036Z,20.92
2022-08-05T13:14:05.235Z,20.13
2022-08-05T13:17:31.529Z,21.02
2022-08-05T13:20:35.362Z,19.36
2022-08-05T13:23:50.648Z,20.66
2022-08-05T13:26:53.966Z,20.58
2022-08-05T13:30:32.664Z,20.35
2022-08-05T13:34:23.605Z,19.93
2022-08-05T13:36:39.559Z,19.50
2022-08-05T13:40:13.400Z,19.57
2022-08-05T13:43:03.606Z,20.05
2022-08-05T13:46:14.807Z,19.69
2022-08-05T13:49:17.848Z,19.43
2022-08-05T13:52:29.246Z,19.05
2022-08-05T13:55:41.164Z,20.52
2022-08-05T13:58:43.914Z,20.04
2022-08-05T14:01:59.442Z,22.09
2022-08-05T14:05:29.298Z,19.59
2022-08-05T14:08:32.504Z,19.79
2022-08-05T14:12:04.257Z,19.43
2022-08-05T14:15:01.055Z,19.25
2022-08-05T14:18:17.754Z,19.62
2022-08-05T14:22:07.360Z,21.05
2022-08-05T14:24:42.420Z,20.32
2022-08-05T14:27:49.566Z,19.79
2022-08-05T14:30:51.909Z,19.17
2022-08-05T14:33:59.959Z,19.75
2022-08-05T14:37:04.577Z,19.31
2022-08-05T14:40:07.097Z,19.52
2022-08-05T14:43:11.053Z,19.71
2022-08-05T14:46:12.906Z,19.28
2022-08-05T14:49:14.682Z,18.84
2022-08-05T14:52:30.719Z,18.48
2022-08-05T14:55:40.211Z,19.06
2022-08-05T14:58:47.766Z,18.47
2022-08-05T15:01:54.957Z,18.60
2022-08-05T15:04:58.441Z,19.85
2022-08-05T15:08:10.616Z,21.24
2022-08-05T15:11:18.732Z,19.75
2022-08-05T15:14:34.943Z,18.35
2022-08-05T15:17:45.634Z,18.21
2022-08-05T15:20:49.677Z,17.65
2022-08-05T15:23:52.690Z,17.80
2022-08-05T15:26:55.842Z,18.58
2022-08-05T15:29:58.053Z,19.07
2022-08-05T15:33:00.491Z,18.77
2022-08-05T15:36:05.164Z,18.74
2022-08-05T15:40:58.549Z,19.98
2022-08-05T15:42:55.914Z,20.19
2022-08-05T15:46:00.551Z,20.65
2022-08-05T15:49:11.375Z,21.46
2022-08-05T15:52:29.585Z,21.46
2022-08-05T15:56:02.908Z,22.38
2022-08-05T15:58:58.714Z,22.94
2022-08-05T16:02:01.274Z,22.80
2022-08-05T16:05:03.525Z,23.16
2022-08-05T16:08:07.219Z,22.89
2022-08-05T16:11:13.265Z,23.14
2022-08-05T16:14:17.472Z,23.33
2022-08-05T16:17:19.584Z,22.78
2022-08-05T16:20:21.356Z,22.38
2022-08-05T16:23:24.332Z,22.81
2022-08-05T16:26:26.559Z,23.00
2022-08-05T16:29:36.971Z,22.79
2022-08-05T16:32:38.951Z,24.83
2022-08-05T16:35:42.871Z,23.80
2022-08-05T16:38:54.767Z,23.98
2022-08-05T16:42:13.584Z,24.02
2022-08-05T16:46:05.136Z,23.80
2022-08-05T16:48:40.701Z,23.81
2022-08-05T16:51:50.894Z,23.98
2022-08-05T16:54:53.204Z,24.14
2022-08-05T16:58:01.336Z,24.93
2022-08-05T17:01:06.683Z,25.64
2022-08-05T17:04:12.265Z,25.68
2022-08-05T17:07:16.742Z,25.51
2022-08-05T17:10:38.500Z,26.30
2022-08-05T17:13:41.458Z,26.36
2022-08-05T17:16:43.936Z,26.78
2022-08-05T17:19:55.398Z,26.80
2022-08-05T17:22:57.693Z,26.94
2022-08-05T17:26:00.777Z,26.36
2022-08-05T17:29:04.254Z,27.25
2022-08-05T17:32:17.018Z,28.18
2022-08-05T17:35:20.871Z,28.14
2022-08-05T17:38:22.981Z,29.06
2022-08-05T17:42:17.692Z,28.82
2022-08-05T17:44:50.178Z,28.95
2022-08-05T17:47:55.861Z,29.06
2022-08-05T17:50:58.061Z,28.92
2022-08-05T17:54:00.160Z,28.91
2022-08-05T17:57:01.890Z,30.56
2022-08-05T18:00:05.872Z,30.33
2022-08-05T18:03:08.081Z,30.11
2022-08-05T18:06:12.045Z,30.41
2022-08-05T18:09:17.885Z,30.70
2022-08-05T18:12:22.373Z,31.15
2022-08-05T18:15:34.152Z,31.61
2022-08-05T18:18:39.883Z,32.10
2022-08-05T18:22:08.917Z,40.28
2022-08-05T18:25:04.140Z,37.88
2022-08-05T18:28:09.481Z,36.55
2022-08-05T18:31:11.212Z,36.03
2022-08-05T18:34:13.145Z,37.82
2022-08-05T18:37:33.678Z,36.54
2022-08-05T18:41:54.169Z,36.96
2022-08-05T18:44:06.196Z,36.22
2022-08-05T18:47:09.679Z,34.92
2022-08-05T18:50:45.069Z,37.23
2022-08-05T18:53:50.369Z,38.14
2022-08-05T18:56:52.421Z,38.09
2022-08-05T19:00:03.179Z,37.98
2022-08-05T19:03:09.366Z,38.59
2022-08-05T19:06:21.833Z,37.61
2022-08-05T19:09:24.759Z,42.16
2022-08-05T19:12:32.268Z,43.65
2022-08-05T19:15:59.073Z,42.87
2022-08-05T19:18:56.683Z,41.97
2022-08-05T19:21:58.706Z,42.09
2022-08-05T19:25:01.006Z,42.24
2022-08-05T19:28:04.921Z,42.50
2022-08-05T19:31:06.606Z,41.96
2022-08-05T19:34:09.042Z,43.13
2022-08-05T19:37:10.816Z,44.93
2022-08-05T19:40:15.021Z,44.53
2022-08-05T19:43:31.318Z,43.79
2022-08-05T19:46:39.422Z,42.70
2022-08-05T19:49:41.268Z,43.33
2022-08-05T19:52:47.796Z,42.22
2022-08-05T19:56:14.993Z,41.20
2022-08-05T19:59:51.014Z,42.20
2022-08-05T20:02:33.765Z,41.71
2022-08-05T20:05:43.317Z,41.96
2022-08-05T20:08:52.381Z,41.73
2022-08-05T20:11:54.744Z,46.27
2022-08-05T20:14:56.808Z,50.33
2022-08-05T20:18:02.014Z,48.86
2022-08-05T20:21:06.951Z,45.35
2022-08-05T20:24:11.481Z,43.01
2022-08-05T20:27:13.421Z,42.87
2022-08-05T20:30:18.343Z,42.82
2022-08-05T20:33:21.692Z,42.44
2022-08-05T20:36:24.303Z,42.15
2022-08-05T20:39:35.615Z,42.59
2022-08-05T20:42:38.704Z,43.09
2022-08-05T20:45:56.429Z,42.76
2022-08-05T20:48:59.107Z,42.58
2022-08-05T20:52:01.219Z,43.13
2022-08-05T20:55:54.946Z,43.58
2022-08-05T20:58:24.991Z,43.42
2022-08-05T21:01:38.547Z,43.11
2022-08-05T21:04:40.734Z,43.26
2022-08-05T21:07:50.587Z,43.39
2022-08-05T21:10:53.961Z,44.18
2022-08-05T21:13:57.011Z,43.55
2022-08-05T21:16:58.869Z,43.97
2022-08-05T21:20:07.065Z,44.32
2022-08-05T21:23:12.903Z,45.38
2022-08-05T21:26:15.871Z,45.64
2022-08-05T21:29:18.076Z,45.36
2022-08-05T21:32:20.381Z,44.15
2022-08-05T21:35:29.588Z,45.52
2022-08-05T21:38:32.312Z,45.77
2022-08-05T21:41:35.594Z,45.85
2022-08-05T21:44:37.608Z,45.73
2022-08-05T21:47:56.699Z,45.55
2022-08-05T21:50:59.453Z,45.87
2022-08-05T21:54:03.821Z,45.25
2022-08-05T21:57:29.729Z,45.80
2022-08-05T22:00:28.618Z,46.13
2022-08-05T22:03:48.513Z,44.63
2022-08-05T22:06:52.666Z,44.83
2022-08-05T22:09:54.438Z,44.37
2022-08-05T22:13:08.957Z,43.86
2022-08-05T22:16:41.945Z,45.26
2022-08-05T22:20:00.104Z,44.75
2022-08-05T22:23:22.550Z,45.47
2022-08-05T22:26:42.899Z,45.89
2022-08-05T22:29:54.261Z,45.46
2022-08-05T22:32:56.079Z,45.48
2022-08-05T22:35:59.896Z,44.48
2022-08-05T22:39:04.300Z,44.39
2022-08-05T22:42:15.450Z,44.50
2022-08-05T22:45:27.609Z,44.88
2022-08-05T22:48:32.671Z,43.63
2022-08-05T22:52:04.547Z,44.29
2022-08-05T22:54:56.325Z,44.77
2022-08-05T22:57:58.018Z,44.49
2022-08-05T23:00:59.971Z,43.94
2022-08-05T23:04:01.743Z,44.23
2022-08-05T23:07:04.031Z,50.84
2022-08-05T23:10:09.379Z,51.39
2022-08-05T23:13:11.133Z,49.92
2022-08-05T23:16:12.820Z,49.61
2022-08-05T23:19:27.864Z,50.34
2022-08-05T23:22:30.732Z,50.70
2022-08-05T23:25:51.132Z,52.08
2022-08-05T23:28:55.041Z,49.88
2022-08-05T23:31:56.764Z,49.67
2022-08-05T23:34:59.051Z,49.38
2022-08-05T23:38:00.994Z,48.31
2022-08-05T23:41:02.688Z,48.70
2022-08-05T23:44:08.606Z,48.02
2022-08-05T23:47:15.219Z,48.22
2022-08-05T23:50:20.251Z,48.12
2022-08-05T23:53:23.143Z,47.99
2022-08-05T23:56:27.323Z,48.22
